Time;durP1;ratioP1;P1;durP2;ratioP2;P2;SDS_P1;SDS_P2;PMS_P1;PMS_P2;Temp;Humidity;BMP_temperature;BMP_pressure;BME280_temperature;BME280_humidity;BME280_pressure;Samples;Min_cycle;Max_cycle;Signal;HPM_P1;HPM_P2
2023/05/20 00:01:56;;;;;;;21.00;5.50;;;;;;;19.58;67.91;100443.59;5017616;28;20886;-62
2023/05/20 00:04:22;;;;;;;25.33;4.63;;;;;;;19.54;68.29;100443.53;5021009;28;20938;-63
2023/05/20 00:06:47;;;;;;;13.40;5.20;;;;;;;19.50;68.20;100436.91;5025974;28;20267;-64
2023/05/20 00:09:13;;;;;;;15.27;5.47;;;;;;;19.49;68.31;100437.28;5021061;28;20219;-64
2023/05/20 00:11:38;;;;;;;14.40;5.17;;;;;;;19.48;68.07;100432.78;5012271;28;20173;-63
2023/05/20 00:14:04;;;;;;;19.37;6.20;;;;;;;19.47;68.03;100436.88;5025604;28;20177;-63
2023/05/20 00:16:29;;;;;;;20.73;4.73;;;;;;;19.45;68.19;100442.97;5008289;28;20204;-64
2023/05/20 00:18:55;;;;;;;11.83;4.53;;;;;;;19.43;67.89;100436.81;5005899;28;20181;-63
2023/05/20 00:21:21;;;;;;;18.43;5.53;;;;;;;19.43;68.11;100436.81;5009481;28;20228;-63
2023/05/20 00:23:46;;;;;;;10.30;4.20;;;;;;;19.42;67.91;100437.19;5007657;28;20915;-63
2023/05/20 00:26:12;;;;;;;11.77;4.23;;;;;;;19.39;67.84;100432.22;5007345;28;20161;-63
2023/05/20 00:28:37;;;;;;;14.07;4.70;;;;;;;19.38;68.10;100421.97;5010374;28;20181;-63
2023/05/20 00:31:03;;;;;;;20.77;4.97;;;;;;;19.35;67.90;100417.84;5006086;28;20173;-63
2023/05/20 00:33:29;;;;;;;19.23;4.70;;;;;;;19.37;67.73;100420.34;5014095;28;20200;-63
2023/05/20 00:35:54;;;;;;;11.30;4.80;;;;;;;19.35;67.49;100417.84;5007138;28;20249;-63
2023/05/20 00:38:20;;;;;;;11.33;4.60;;;;;;;19.35;67.72;100422.72;5021091;28;20229;-64
2023/05/20 00:40:45;;;;;;;11.30;4.30;;;;;;;19.34;67.62;100421.94;5010337;28;20200;-63
2023/05/20 00:43:11;;;;;;;12.63;3.90;;;;;;;19.34;67.46;100429.69;5019739;28;20181;-63
2023/05/20 00:45:36;;;;;;;12.20;4.53;;;;;;;19.33;67.58;100426.00;5013773;28;20203;-64
2023/05/20 00:48:02;;;;;;;15.60;4.40;;;;;;;19.31;67.48;100434.13;5015810;28;20643;-63
2023/05/20 00:50:28;;;;;;;10.00;3.77;;;;;;;19.30;67.42;100421.03;5026209;28;20193;-63
2023/05/20 00:52:54;;;;;;;9.30;3.80;;;;;;;19.28;67.41;100429.19;5017144;28;20958;-63
2023/05/20 00:55:20;;;;;;;11.60;4.20;;;;;;;19.28;67.30;100429.19;5006212;28;20250;-64
2023/05/20 00:57:46;;;;;;;9.83;3.70;;;;;;;19.27;67.52;100423.84;5027878;28;20613;-64
2023/05/20 01:00:12;;;;;;;12.00;3.83;;;;;;;19.25;67.46;100420.53;5027808;28;20431;-64
2023/05/20 01:02:38;;;;;;;10.33;4.40;;;;;;;19.24;67.45;100425.44;5025721;28;20446;-64
2023/05/20 01:05:04;;;;;;;11.83;4.10;;;;;;;19.25;67.37;100418.50;5027041;28;20415;-64
2023/05/20 01:07:29;;;;;;;13.80;4.00;;;;;;;19.24;67.15;100414.00;5021873;28;20232;-63
2023/05/20 01:09:55;;;;;;;12.83;4.47;;;;;;;19.23;67.25;100420.09;5025766;28;20214;-64
2023/05/20 01:12:28;;;;;;;11.67;4.67;;;;;;;19.21;67.40;100423.28;5006549;28;20172;-64
2023/05/20 01:14:59;;;;;;;10.33;3.83;;;;;;;19.19;67.30;100414.28;5009560;28;20213;-63
2023/05/20 01:17:26;;;;;;;8.17;4.27;;;;;;;19.20;67.12;100415.91;5027553;28;20482;-63
2023/05/20 01:19:52;;;;;;;8.47;3.50;;;;;;;19.20;67.10;100415.91;4982024;28;20451;-64
2023/05/20 01:22:18;;;;;;;13.00;4.37;;;;;;;19.20;67.17;100420.81;5007004;28;20511;-63
2023/05/20 01:24:44;;;;;;;9.57;4.13;;;;;;;19.19;67.14;100417.13;4989945;28;20417;-64
2023/05/20 01:27:12;;;;;;;13.10;3.73;;;;;;;19.16;67.24;100423.63;5006886;28;20157;-63
2023/05/20 01:29:38;;;;;;;11.00;4.57;;;;;;;19.16;66.95;100415.03;5008052;28;20455;-64
2023/05/20 01:32:11;;;;;;;9.80;3.83;;;;;;;19.16;66.95;100412.16;5009484;28;20457;-63
2023/05/20 01:34:37;;;;;;;7.40;3.87;;;;;;;19.15;66.91;100419.09;5020868;28;20245;-63
2023/05/20 01:37:03;;;;;;;12.53;4.60;;;;;;;19.14;66.83;100411.72;5008666;28;20459;-63
2023/05/20 01:39:28;;;;;;;11.70;3.90;;;;;;;19.14;67.06;100420.31;5008759;28;20188;-63
2023/05/20 01:41:54;;;;;;;8.03;3.53;;;;;;;19.15;66.85;100410.53;5025423;28;20427;-63
2023/05/20 01:44:20;;;;;;;8.50;3.43;;;;;;;19.14;66.84;100408.88;5015977;28;20207;-63
2023/05/20 01:46:49;;;;;;;7.77;3.10;;;;;;;19.13;66.94;100403.53;5026254;28;20190;-64
2023/05/20 01:49:14;;;;;;;11.40;4.03;;;;;;;19.13;66.59;100410.09;5019964;28;20203;-63
2023/05/20 01:51:40;;;;;;;13.07;4.00;;;;;;;19.13;66.83;100401.50;5019879;28;20420;-63
2023/05/20 01:54:05;;;;;;;9.60;3.60;;;;;;;19.12;67.01;100394.09;5027753;28;20165;-63
2023/05/20 01:56:31;;;;;;;10.67;3.87;;;;;;;19.10;66.85;100385.09;5021151;28;20200;-64
2023/05/20 01:58:56;;;;;;;10.47;4.57;;;;;;;19.11;66.64;100386.72;5016601;28;20219;-63
2023/05/20 02:01:22;;;;;;;9.87;3.80;;;;;;;19.10;66.82;100376.50;5027179;28;20173;-64
2023/05/20 02:03:47;;;;;;;12.63;4.00;;;;;;;19.10;66.75;100378.53;5023121;28;20212;-64
2023/05/20 02:06:12;;;;;;;8.20;3.60;;;;;;;19.10;66.78;100376.50;5010031;28;20228;-63
2023/05/20 02:08:38;;;;;;;6.23;3.50;;;;;;;19.09;66.58;100369.13;5011841;28;20201;-63
2023/05/20 02:11:03;;;;;;;8.60;3.50;;;;;;;19.09;66.83;100369.13;5012034;28;20185;-63
2023/05/20 02:13:29;;;;;;;6.60;3.37;;;;;;;19.07;66.55;100360.09;5021130;28;20192;-63
2023/05/20 02:15:54;;;;;;;6.13;3.07;;;;;;;19.07;66.77;100360.09;5026472;28;20197;-64
2023/05/20 02:18:19;;;;;;;8.40;3.27;;;;;;;19.08;66.67;100355.19;5028955;28;20200;-63
2023/05/20 02:20:45;;;;;;;9.10;3.80;;;;;;;19.08;66.64;100353.19;5030002;28;20546;-63
2023/05/20 02:23:11;;;;;;;8.30;3.23;;;;;;;19.09;66.80;100357.69;5030684;28;20514;-63
2023/05/20 02:25:36;;;;;;;8.53;3.60;;;;;;;19.07;66.70;100354.34;5021951;28;20239;-63
2023/05/20 02:28:04;;;;;;;9.13;3.60;;;;;;;19.06;66.60;100355.56;5019433;28;20176;-64
2023/05/20 02:30:30;;;;;;;7.77;3.00;;;;;;;19.07;66.55;100353.56;5030677;28;20188;-63
2023/05/20 02:32:56;;;;;;;8.70;3.60;;;;;;;19.06;66.54;100363.34;5030497;28;20423;-63
2023/05/20 02:35:22;;;;;;;9.10;4.30;;;;;;;19.06;66.49;100358.44;5026937;28;20591;-63
2023/05/20 02:37:47;;;;;;;9.63;3.80;;;;;;;19.05;66.55;100355.94;5030850;28;20466;-63
2023/05/20 02:40:13;;;;;;;10.27;3.07;;;;;;;19.06;66.51;100355.56;5030188;28;20165;-64
2023/05/20 02:42:39;;;;;;;7.00;3.10;;;;;;;19.04;66.35;100352.28;5027434;28;20176;-63
2023/05/20 02:45:05;;;;;;;6.23;3.10;;;;;;;19.04;66.43;100360.03;5024309;28;20184;-63
2023/05/20 02:47:31;;;;;;;6.37;3.63;;;;;;;19.03;66.43;100353.50;5028272;28;20942;-63
2023/05/20 02:49:56;;;;;;;6.40;3.43;;;;;;;19.03;66.35;100350.63;5027277;28;20427;-63
2023/05/20 02:52:22;;;;;;;9.37;3.23;;;;;;;19.03;66.35;100352.66;5024972;28;20188;-63
2023/05/20 02:54:47;;;;;;;7.60;3.80;;;;;;;19.03;66.48;100347.78;5025497;28;20914;-63
2023/05/20 02:57:13;;;;;;;6.40;3.33;;;;;;;19.02;66.46;100346.09;5013086;28;20213;-63
2023/05/20 02:59:38;;;;;;;9.47;3.90;;;;;;;19.02;66.62;100345.28;5008297;28;20267;-64
2023/05/20 03:02:04;;;;;;;8.00;3.90;;;;;;;19.02;66.53;100348.97;5013465;28;20238;-64
2023/05/20 03:04:30;;;;;;;5.93;3.43;;;;;;;19.03;66.33;100349.81;5028894;28;20188;-63
2023/05/20 03:06:56;;;;;;;7.97;3.63;;;;;;;19.02;66.44;100353.88;5025782;28;20235;-64
2023/05/20 03:09:23;;;;;;;6.87;3.00;;;;;;;19.02;66.28;100348.16;5028654;28;20454;-63
2023/05/20 03:11:49;;;;;;;7.13;2.93;;;;;;;19.02;66.33;100356.75;5029240;28;20819;-63
2023/05/20 03:14:15;;;;;;;6.57;2.93;;;;;;;19.02;66.22;100357.53;5034763;28;20435;-63
2023/05/20 03:16:40;;;;;;;9.33;3.40;;;;;;;19.00;66.29;100357.13;5021952;28;20525;-63
2023/05/20 03:19:06;;;;;;;5.87;3.10;;;;;;;19.00;66.28;100353.41;5027351;28;20200;-63
2023/05/20 03:21:32;;;;;;;5.97;2.70;;;;;;;19.00;66.47;100359.97;5025212;28;20188;-63
2023/05/20 03:23:58;;;;;;;8.33;3.67;;;;;;;18.99;65.86;100357.50;5010376;28;20162;-63
2023/05/20 03:26:24;;;;;;;7.10;3.60;;;;;;;18.98;66.39;100353.81;5010199;28;20426;-64
2023/05/20 03:28:50;;;;;;;7.20;3.30;;;;;;;18.99;66.23;100357.50;5011983;28;20181;-63
2023/05/20 03:31:16;;;;;;;6.50;2.80;;;;;;;18.98;66.31;100362.41;5008465;28;20807;-64
2023/05/20 03:33:41;;;;;;;7.73;3.43;;;;;;;18.98;66.31;100355.84;5016593;28;20216;-63
2023/05/20 03:36:07;;;;;;;7.13;3.13;;;;;;;18.99;66.16;100357.50;5024960;28;20431;-63
2023/05/20 03:38:32;;;;;;;6.40;3.00;;;;;;;18.97;66.31;100360.72;5024718;28;20255;-63
2023/05/20 03:40:58;;;;;;;5.40;3.10;;;;;;;18.98;66.27;100350.97;5028476;28;20188;-63
2023/05/20 03:43:24;;;;;;;5.80;2.70;;;;;;;18.98;66.40;100350.13;5029326;28;20177;-63
2023/05/20 03:45:49;;;;;;;5.80;2.80;;;;;;;18.98;66.30;100359.53;5025336;28;20203;-64
2023/05/20 03:48:15;;;;;;;8.10;3.03;;;;;;;18.96;66.32;100359.09;5028239;28;20458;-64
2023/05/20 03:50:41;;;;;;;5.80;3.07;;;;;;;18.96;66.35;100356.22;5025591;28;20713;-63
2023/05/20 03:53:07;;;;;;;6.63;3.57;;;;;;;18.96;66.20;100364.00;5009210;28;20173;-63
2023/05/20 03:55:32;;;;;;;6.17;3.17;;;;;;;18.96;66.17;100369.72;5009214;28;20907;-63
2023/05/20 03:57:58;;;;;;;8.50;2.93;;;;;;;18.96;66.35;100372.56;5012450;28;20205;-63
2023/05/20 04:00:23;;;;;;;5.73;2.70;;;;;;;18.96;66.12;100364.00;5007018;28;20172;-63
2023/05/20 04:02:48;;;;;;;7.10;2.60;;;;;;;18.96;66.19;100364.81;5022527;28;20195;-63
2023/05/20 04:05:14;;;;;;;6.23;3.30;;;;;;;18.94;66.11;100367.22;5007895;28;20522;-63
2023/05/20 04:07:40;;;;;;;6.70;3.30;;;;;;;18.96;66.14;100370.53;5007830;28;20344;-63
2023/05/20 04:10:06;;;;;;;5.03;2.40;;;;;;;18.94;66.18;100361.50;4983497;28;20641;-63
2023/05/20 04:12:31;;;;;;;6.03;3.20;;;;;;;18.95;66.29;100363.16;5023820;28;20184;-63
2023/05/20 04:15:00;;;;;;;5.67;2.70;;;;;;;18.93;66.01;100362.72;5009837;28;20447;-63
2023/05/20 04:17:29;;;;;;;5.33;2.53;;;;;;;18.93;66.13;100359.88;5008688;28;20262;-63
2023/05/20 04:19:56;;;;;;;7.70;2.87;;;;;;;18.94;66.18;100367.22;5008186;28;20420;-63
2023/05/20 04:22:22;;;;;;;6.03;3.10;;;;;;;18.93;66.33;100365.59;5011011;28;20847;-63
2023/05/20 04:24:47;;;;;;;10.60;3.20;;;;;;;18.93;66.17;100365.59;5008988;28;20523;-63
2023/05/20 04:27:13;;;;;;;6.03;2.50;;;;;;;18.92;66.09;100369.63;5010656;28;20223;-63
2023/05/20 04:29:40;;;;;;;4.90;2.60;;;;;;;18.92;66.09;100365.97;5008911;28;20227;-63
2023/05/20 04:32:06;;;;;;;4.50;2.57;;;;;;;18.92;66.10;100363.09;5008979;28;20184;-63
2023/05/20 04:34:33;;;;;;;6.90;3.30;;;;;;;18.92;66.17;100363.91;5024419;28;20430;-63
2023/05/20 04:37:00;;;;;;;5.50;2.80;;;;;;;18.92;66.16;100361.03;5009750;28;20450;-63
2023/05/20 04:39:25;;;;;;;6.60;3.03;;;;;;;18.91;66.02;100352.88;5019040;28;21138;-63
2023/05/20 04:41:53;;;;;;;6.03;2.90;;;;;;;18.92;65.99;100355.31;5009976;28;20421;-63
2023/05/20 04:44:19;;;;;;;6.07;2.97;;;;;;;18.93;65.99;100348.41;5025232;28;20169;-63
2023/05/20 04:46:44;;;;;;;6.43;2.60;;;;;;;18.94;65.70;100344.34;5010172;28;20430;-63
2023/05/20 04:49:10;;;;;;;6.10;2.93;;;;;;;18.95;65.92;100340.28;5009502;28;20232;-63
2023/05/20 04:51:36;;;;;;;8.10;3.00;;;;;;;18.94;65.92;100335.75;5010511;28;20275;-63
2023/05/20 04:54:01;;;;;;;5.30;2.80;;;;;;;18.94;65.98;100332.06;5008198;28;20177;-63
2023/05/20 04:56:27;;;;;;;6.93;2.80;;;;;;;18.92;66.08;100343.88;5011306;28;20180;-64
2023/05/20 04:58:53;;;;;;;5.37;2.60;;;;;;;18.92;65.77;100345.94;5012290;28;20216;-63
2023/05/20 05:01:18;;;;;;;6.67;2.70;;;;;;;18.93;66.07;100347.59;5020633;28;20196;-64
2023/05/20 05:03:44;;;;;;;6.70;3.00;;;;;;;18.91;65.98;100342.25;5025919;28;20430;-63
2023/05/20 05:06:09;;;;;;;3.67;2.00;;;;;;;18.91;65.94;100350.00;5008633;28;20228;-63
2023/05/20 05:08:35;;;;;;;6.57;2.70;;;;;;;18.91;65.79;100342.25;5024868;28;20216;-63
2023/05/20 05:11:00;;;;;;;6.57;2.77;;;;;;;18.92;65.63;100345.94;5027918;28;20169;-63
2023/05/20 05:13:26;;;;;;;7.93;3.00;;;;;;;18.91;65.83;100342.25;5019145;28;20196;-63
2023/05/20 05:15:58;;;;;;;5.60;2.83;;;;;;;18.91;65.91;100350.81;4990041;28;20188;-63
2023/05/20 05:18:24;;;;;;;4.70;2.53;;;;;;;18.92;65.59;100352.47;4990036;28;20668;-64
2023/05/20 05:20:49;;;;;;;4.53;2.57;;;;;;;18.93;65.76;100339.84;5007812;28;20436;-64
2023/05/20 05:23:15;;;;;;;5.53;2.47;;;;;;;18.92;65.77;100345.94;5005852;28;20169;-63
2023/05/20 05:25:40;;;;;;;6.13;2.13;;;;;;;18.93;65.77;100345.56;5017419;28;20184;-63
2023/05/20 05:28:05;;;;;;;5.87;2.70;;;;;;;18.92;65.75;100337.34;5027513;28;20168;-64
2023/05/20 05:30:31;;;;;;;5.80;2.80;;;;;;;18.92;65.76;100337.34;5024996;28;20181;-63
2023/05/20 05:32:56;;;;;;;4.03;2.20;;;;;;;18.91;65.92;100339.38;5019471;28;20547;-63
2023/05/20 05:35:22;;;;;;;5.30;2.40;;;;;;;18.93;65.64;100331.25;5026113;28;20180;-63
2023/05/20 05:37:47;;;;;;;6.50;3.27;;;;;;;18.94;65.61;100329.19;5016431;28;20268;-64
2023/05/20 05:40:13;;;;;;;5.30;2.80;;;;;;;18.94;65.78;100334.94;5010983;28;20176;-63
2023/05/20 05:42:38;;;;;;;4.77;2.70;;;;;;;18.93;65.66;100345.56;5017312;28;20276;-63
2023/05/20 05:45:04;;;;;;;6.93;3.30;;;;;;;18.94;65.61;100343.50;5011431;28;20157;-64
2023/05/20 05:47:31;;;;;;;7.30;3.10;;;;;;;18.93;65.58;100350.44;5010864;28;20578;-64
2023/05/20 05:49:58;;;;;;;6.53;3.03;;;;;;;18.92;65.66;100338.16;5022577;28;20450;-63
2023/05/20 05:52:23;;;;;;;5.70;2.53;;;;;;;18.93;65.92;100339.84;5031148;28;20482;-63
2023/05/20 05:54:49;;;;;;;5.43;3.03;;;;;;;18.93;65.66;100334.13;5017288;28;20442;-64
2023/05/20 05:57:14;;;;;;;4.23;2.30;;;;;;;18.92;65.75;100332.44;5019859;28;20553;-64
2023/05/20 05:59:39;;;;;;;4.13;2.33;;;;;;;18.93;65.65;100336.97;5031217;28;20629;-63
2023/05/20 06:02:05;;;;;;;3.30;1.97;;;;;;;18.92;65.84;100341.03;5027505;28;20211;-64
2023/05/20 06:04:31;;;;;;;6.70;2.80;;;;;;;18.94;65.93;100341.50;5030138;28;20184;-64
2023/05/20 06:06:56;;;;;;;5.30;2.77;;;;;;;18.93;65.46;100331.25;5028205;28;20224;-63
2023/05/20 06:09:21;;;;;;;4.37;2.47;;;;;;;18.94;65.56;100344.34;5034564;28;20215;-63
2023/05/20 06:11:47;;;;;;;5.20;2.27;;;;;;;18.96;65.59;100338.25;5029399;28;20172;-64
2023/05/20 06:14:12;;;;;;;5.80;2.50;;;;;;;18.96;65.45;100341.09;5024730;28;20179;-64
2023/05/20 06:16:38;;;;;;;5.30;2.87;;;;;;;18.95;65.41;100334.56;5019627;28;20208;-63
2023/05/20 06:19:04;;;;;;;6.60;2.70;;;;;;;18.94;65.48;100326.34;5010110;28;20181;-63
2023/05/20 06:21:30;;;;;;;6.27;2.60;;;;;;;18.94;65.55;100330.03;5011094;28;20533;-63
2023/05/20 06:23:55;;;;;;;4.80;2.60;;;;;;;18.94;65.55;100332.06;5012426;28;20443;-63
2023/05/20 06:26:21;;;;;;;5.30;2.43;;;;;;;18.93;65.46;100331.25;5029357;28;20410;-64
2023/05/20 06:28:47;;;;;;;4.20;2.23;;;;;;;18.93;65.75;100333.28;5029522;28;20926;-64
2023/05/20 06:31:12;;;;;;;4.30;2.80;;;;;;;18.92;65.58;100329.56;5034531;28;20184;-64
2023/05/20 06:33:38;;;;;;;6.07;2.53;;;;;;;18.93;65.42;100331.25;5036041;28;20176;-64
2023/05/20 06:36:04;;;;;;;5.60;2.70;;;;;;;18.92;65.56;100323.84;5035746;28;20165;-64
2023/05/20 06:38:29;;;;;;;4.83;2.27;;;;;;;18.93;65.33;100331.25;5036734;28;20215;-64
2023/05/20 06:40:55;;;;;;;5.23;2.30;;;;;;;18.92;65.54;100323.84;5038429;28;21043;-64
2023/05/20 06:43:20;;;;;;;4.83;2.50;;;;;;;18.92;65.55;100323.84;5038462;28;20188;-65
2023/05/20 06:45:46;;;;;;;5.20;2.60;;;;;;;18.93;65.54;100322.69;5028453;28;20240;-64
2023/05/20 06:48:11;;;;;;;4.53;2.10;;;;;;;18.92;65.55;100323.84;5023415;28;20172;-64
2023/05/20 06:50:37;;;;;;;3.90;2.47;;;;;;;18.93;65.35;100330.41;5038391;28;20192;-64
2023/05/20 06:53:03;;;;;;;4.83;3.00;;;;;;;18.92;65.54;100329.56;5043968;28;20168;-64
2023/05/20 06:55:28;;;;;;;5.10;2.47;;;;;;;18.92;65.56;100328.78;5040622;28;20212;-65
2023/05/20 06:57:54;;;;;;;9.10;2.43;;;;;;;18.92;65.49;100329.56;5032007;28;20466;-65
2023/05/20 07:00:19;;;;;;;4.97;2.37;;;;;;;18.92;65.42;100335.31;5034316;28;20179;-65
2023/05/20 07:02:45;;;;;;;3.87;2.10;;;;;;;18.92;65.44;100332.44;5038682;28;20192;-64
2023/05/20 07:05:10;;;;;;;5.10;2.63;;;;;;;18.92;65.48;100329.56;5028884;28;20452;-65
2023/05/20 07:07:36;;;;;;;4.57;2.53;;;;;;;18.90;65.54;100317.72;5035710;28;20236;-64
2023/05/20 07:10:04;;;;;;;6.03;3.23;;;;;;;18.92;65.71;100312.41;5036651;28;20188;-65
2023/05/20 07:12:30;;;;;;;4.90;2.80;;;;;;;18.90;65.47;100311.97;5034001;28;20197;-64
2023/05/20 07:14:56;;;;;;;4.30;2.00;;;;;;;18.93;65.36;100304.66;5017082;28;20450;-64
2023/05/20 07:17:21;;;;;;;4.07;2.10;;;;;;;18.91;65.46;100304.25;5013686;28;20475;-64
2023/05/20 07:19:46;;;;;;;3.70;2.07;;;;;;;18.89;65.47;100296.03;5029165;28;20169;-64
2023/05/20 07:22:12;;;;;;;4.00;2.10;;;;;;;18.90;65.61;100308.28;5028636;28;20196;-64
2023/05/20 07:24:37;;;;;;;4.73;2.63;;;;;;;18.90;65.35;100303.41;5035863;28;20177;-65
2023/05/20 07:27:03;;;;;;;5.97;2.10;;;;;;;18.90;65.43;100288.25;5030456;28;20177;-63
2023/05/20 07:29:28;;;;;;;4.20;1.97;;;;;;;18.90;64.99;100294.81;5021683;28;20179;-65
2023/05/20 07:31:54;;;;;;;9.47;3.30;;;;;;;18.84;64.79;100290.63;5040737;28;20945;-64
2023/05/20 07:34:21;;;;;;;7.47;3.83;;;;;;;18.82;64.48;100295.91;5036066;28;20176;-64
2023/05/20 07:36:46;;;;;;;6.10;3.77;;;;;;;18.84;63.27;100292.66;5017155;28;20201;-65
2023/05/20 07:39:12;;;;;;;7.40;3.70;;;;;;;18.83;63.19;100286.13;5034511;28;20443;-65
2023/05/20 07:41:38;;;;;;;7.90;4.53;;;;;;;18.95;64.53;100283.06;5019259;28;20183;-64
2023/05/20 07:44:03;;;;;;;6.80;4.77;;;;;;;19.00;64.78;100284.75;5015414;28;20196;-64
2023/05/20 07:46:29;;;;;;;9.10;4.90;;;;;;;19.02;63.59;100279.50;5011509;28;20197;-63
2023/05/20 07:48:54;;;;;;;7.20;4.47;;;;;;;19.03;62.98;100266.81;5011887;28;20185;-63
2023/05/20 07:51:20;;;;;;;11.80;6.10;;;;;;;19.03;62.82;100270.53;5014112;28;20247;-63
2023/05/20 07:53:45;;;;;;;7.67;4.20;;;;;;;19.02;62.22;100265.19;4996891;28;20195;-66
2023/05/20 07:56:11;;;;;;;7.93;5.07;;;;;;;19.02;61.78;100265.97;5027343;28;20590;-63
2023/05/20 07:58:36;;;;;;;10.53;4.50;;;;;;;18.97;61.72;100274.91;5028111;28;20208;-65
2023/05/20 08:01:02;;;;;;;11.40;4.40;;;;;;;18.98;61.84;100272.88;5015137;28;20216;-63
2023/05/20 08:03:28;;;;;;;9.33;5.13;;;;;;;18.97;61.62;100269.19;5019324;28;20193;-63
2023/05/20 08:05:55;;;;;;;7.23;4.80;;;;;;;19.03;61.48;100264.81;5019898;28;20181;-63
2023/05/20 08:08:20;;;;;;;9.90;4.47;;;;;;;19.05;61.67;100261.53;5016111;28;20279;-63
2023/05/20 08:10:46;;;;;;;8.97;5.20;;;;;;;19.04;61.47;100263.59;5023860;28;20466;-63
2023/05/20 08:13:11;;;;;;;10.70;5.03;;;;;;;19.10;61.20;100259.19;5025025;28;20207;-63
2023/05/20 08:15:37;;;;;;;10.87;5.00;;;;;;;19.12;61.12;100253.06;5028282;28;20192;-63
2023/05/20 08:18:02;;;;;;;7.00;4.70;;;;;;;19.04;61.42;100257.88;5026690;28;20216;-65
2023/05/20 08:20:28;;;;;;;14.20;5.93;;;;;;;18.98;61.60;100247.97;5014208;28;20274;-62
2023/05/20 08:22:54;;;;;;;10.33;4.80;;;;;;;19.06;62.01;100249.72;4976270;28;20193;-64
2023/05/20 08:25:19;;;;;;;6.07;4.80;;;;;;;19.10;62.12;100238.31;5012543;28;20189;-63
2023/05/20 08:27:45;;;;;;;7.83;5.00;;;;;;;19.14;62.13;100237.16;5025213;28;20175;-65
2023/05/20 08:30:10;;;;;;;6.77;4.60;;;;;;;19.08;62.22;100250.16;5032459;28;20172;-66
2023/05/20 08:32:36;;;;;;;8.40;4.80;;;;;;;19.08;62.28;100249.31;5007765;28;20204;-65
2023/05/20 08:35:02;;;;;;;8.73;5.10;;;;;;;19.09;62.65;100237.50;5016173;28;20234;-63
2023/05/20 08:37:28;;;;;;;8.30;5.20;;;;;;;19.16;62.34;100242.50;5015046;28;20283;-63
2023/05/20 08:39:54;;;;;;;11.10;4.90;;;;;;;19.17;61.93;100233.50;5014449;28;20447;-64
2023/05/20 08:42:23;;;;;;;11.10;5.33;;;;;;;19.23;62.29;100231.19;4997944;28;20189;-64
2023/05/20 08:44:52;;;;;;;9.27;5.20;;;;;;;19.26;62.07;100227.56;5009726;28;20177;-64
2023/05/20 08:47:20;;;;;;;9.63;4.97;;;;;;;19.21;62.06;100225.00;5017283;28;21103;-63
2023/05/20 08:49:46;;;;;;;11.03;5.90;;;;;;;19.15;62.32;100229.38;5020226;28;20440;-64
2023/05/20 08:52:12;;;;;;;11.30;5.57;;;;;;;19.10;62.13;100221.13;5017036;28;21401;-64
2023/05/20 08:54:44;;;;;;;9.50;5.23;;;;;;;19.08;62.35;100224.41;5004778;28;20189;-64
2023/05/20 08:57:12;;;;;;;6.07;4.60;;;;;;;19.07;62.02;100222.72;4993959;28;20468;-64
2023/05/20 08:59:45;;;;;;;13.30;5.43;;;;;;;19.09;62.09;100225.22;5019843;28;20439;-64
2023/05/20 09:02:11;;;;;;;10.30;5.60;;;;;;;19.11;62.50;100229.34;5019537;28;20451;-63
2023/05/20 09:04:36;;;;;;;10.50;6.00;;;;;;;19.11;62.78;100232.19;4976505;28;20563;-64
2023/05/20 09:07:02;;;;;;;10.20;5.63;;;;;;;19.16;63.16;100233.91;5021358;28;20652;-64
2023/05/20 09:09:28;;;;;;;13.87;5.33;;;;;;;19.14;63.21;100231.44;5015359;28;20207;-65
2023/05/20 09:11:54;;;;;;;8.93;5.33;;;;;;;19.12;62.77;100245.28;5008853;28;20215;-64
2023/05/20 09:14:19;;;;;;;10.30;5.80;;;;;;;19.09;62.54;100237.50;4990184;28;20420;-64
2023/05/20 09:16:46;;;;;;;10.70;6.10;;;;;;;19.10;62.34;100232.59;5016488;28;20188;-64
2023/05/20 09:19:11;;;;;;;12.80;5.40;;;;;;;19.11;62.81;100231.41;5016196;28;20246;-63
2023/05/20 09:21:37;;;;;;;9.50;5.93;;;;;;;19.13;62.54;100241.25;5011276;28;20922;-64
2023/05/20 09:24:03;;;;;;;9.43;4.60;;;;;;;19.15;62.82;100237.97;5001762;28;20196;-63
2023/05/20 09:26:29;;;;;;;10.57;5.30;;;;;;;19.16;62.78;100234.72;5011199;28;20239;-64
2023/05/20 09:28:58;;;;;;;7.70;5.17;;;;;;;19.17;62.92;100224.91;5020402;28;20188;-64
2023/05/20 09:31:28;;;;;;;7.43;4.77;;;;;;;19.17;62.93;100222.06;5022464;28;20253;-63
2023/05/20 09:33:54;;;;;;;8.27;5.03;;;;;;;19.16;63.02;100223.28;5015022;28;20450;-63
2023/05/20 09:36:20;;;;;;;7.23;4.70;;;;;;;19.17;63.12;100224.91;5026228;28;20497;-64
2023/05/20 09:38:46;;;;;;;6.70;5.00;;;;;;;19.19;63.39;100216.78;5027322;28;20490;-64
2023/05/20 09:41:12;;;;;;;7.87;4.50;;;;;;;19.19;63.16;100213.94;5007304;28;20455;-64
2023/05/20 09:43:41;;;;;;;11.00;5.37;;;;;;;19.20;63.13;100206.16;5026544;28;20423;-63
2023/05/20 09:46:07;;;;;;;6.50;4.30;;;;;;;19.20;63.30;100214.75;5019363;28;20444;-64
2023/05/20 09:48:36;;;;;;;5.73;4.20;;;;;;;19.20;63.65;100209.84;5020372;28;20504;-64
2023/05/20 09:51:03;;;;;;;7.73;4.40;;;;;;;19.18;63.29;100212.28;5010593;28;20196;-63
2023/05/20 09:53:28;;;;;;;9.57;4.60;;;;;;;19.19;63.35;100213.94;5014559;28;20427;-63
2023/05/20 09:55:54;;;;;;;7.10;3.90;;;;;;;19.18;63.48;100206.56;5023455;28;21099;-64
2023/05/20 09:58:20;;;;;;;7.33;4.70;;;;;;;19.18;63.56;100200.84;5020060;28;20274;-64
2023/05/20 10:00:45;;;;;;;6.97;4.37;;;;;;;19.18;63.54;100212.28;5025531;28;20435;-64
2023/05/20 10:03:11;;;;;;;8.10;4.20;;;;;;;19.18;63.60;100200.00;5014760;28;20580;-63
2023/05/20 10:05:40;;;;;;;6.90;4.60;;;;;;;19.16;63.73;100203.25;5021107;28;20228;-64
2023/05/20 10:08:05;;;;;;;6.70;4.17;;;;;;;19.19;65.12;100199.63;5025606;28;20269;-64
2023/05/20 10:10:56;;;;;;;8.50;4.80;;;;;;;19.26;64.32;100188.28;5019384;28;20802;-64
2023/05/20 10:13:36;;;;;;;8.33;4.80;;;;;;;19.36;64.46;100190.47;4982307;28;20261;-63
2023/05/20 10:16:29;;;;;;;9.53;6.90;;;;;;;19.42;65.08;100199.56;5016322;28;20443;-64
2023/05/20 10:19:04;;;;;;;16.70;5.67;;;;;;;19.61;64.48;100174.41;5020187;28;20439;-63
2023/05/20 10:21:31;;;;;;;10.73;5.67;;;;;;;19.75;63.55;100174.59;5017776;28;20950;-63
2023/05/20 10:24:08;;;;;;;11.67;5.87;;;;;;;19.64;63.44;100165.06;5014532;28;20424;-64
2023/05/20 10:26:37;;;;;;;9.00;6.27;;;;;;;19.50;63.10;100173.47;5023599;28;20505;-63
2023/05/20 10:29:16;;;;;;;10.50;5.63;;;;;;;19.46;63.21;100177.53;5029769;28;20435;-63
2023/05/20 10:31:50;;;;;;;10.17;6.10;;;;;;;19.44;63.24;100177.06;4999863;28;20447;-63
2023/05/20 10:34:16;;;;;;;8.23;5.90;;;;;;;19.45;62.83;100176.69;5025393;28;20447;-64
2023/05/20 10:36:53;;;;;;;12.40;6.17;;;;;;;19.43;63.06;100167.69;5018660;28;20459;-63
2023/05/20 10:39:18;;;;;;;8.53;5.43;;;;;;;19.46;62.97;100166.06;5012001;28;20478;-64
2023/05/20 10:41:44;;;;;;;9.63;5.57;;;;;;;19.46;62.77;100171.78;5019318;28;21057;-64
2023/05/20 10:44:10;;;;;;;8.80;6.47;;;;;;;19.48;63.76;100163.63;5038641;28;20297;-64
2023/05/20 10:46:35;;;;;;;7.40;5.40;;;;;;;19.53;64.05;100149.81;5031436;28;20192;-64
2023/05/20 10:49:01;;;;;;;7.30;5.10;;;;;;;19.59;63.86;100150.25;5011165;28;20219;-63
2023/05/20 10:51:27;;;;;;;6.40;5.17;;;;;;;19.62;63.77;100149.47;5007601;28;20203;-64
2023/05/20 10:53:56;;;;;;;9.33;5.43;;;;;;;19.63;63.67;100154.81;5013720;28;20191;-65
2023/05/20 10:56:25;;;;;;;6.93;5.00;;;;;;;19.64;63.68;100155.63;5011054;28;20566;-64
2023/05/20 10:58:52;;;;;;;8.13;5.43;;;;;;;19.70;63.87;100149.16;5018980;28;20478;-64
2023/05/20 11:01:20;;;;;;;9.73;5.47;;;;;;;19.70;63.93;100149.16;5008651;28;20431;-64
2023/05/20 11:03:46;;;;;;;8.27;5.40;;;;;;;19.73;63.14;100153.28;5026533;28;20450;-65
2023/05/20 11:06:12;;;;;;;8.60;5.50;;;;;;;19.69;63.14;100147.53;5010216;28;20431;-64
2023/05/20 11:08:38;;;;;;;11.23;5.70;;;;;;;19.68;63.11;100127.84;5021414;28;20909;-65
2023/05/20 11:11:03;;;;;;;7.20;5.37;;;;;;;19.68;62.47;100134.41;5017623;28;20189;-64
2023/05/20 11:13:29;;;;;;;9.27;5.70;;;;;;;19.67;62.09;100123.34;5016360;28;20643;-65
2023/05/20 11:15:55;;;;;;;12.47;5.93;;;;;;;19.69;61.76;100123.78;5029369;28;20199;-64
2023/05/20 11:18:21;;;;;;;8.63;5.07;;;;;;;19.68;61.70;100122.13;5028660;28;20459;-65
2023/05/20 11:20:46;;;;;;;8.43;6.07;;;;;;;19.69;61.45;100104.56;5031978;28;20196;-64